»·PEaware :: SWA6262 KPHX-KVNY

SWA6262 :: KPHX-KVNY

FLIGHT INFORMATION

Flight Status: Arrived
Operator:
Southwest Airlines
More flights by this operator :: More flights under this callsign
Pilot: Judson K. (15650)
Aircraft: BOEING 737-300
(B733)
More flights by this aircraft type
Origin: KPHX Phoenix Sky Harbor Intl
United States
Destination: KVNY Van Nuys
United States
More flights between these airports :: More routes between these airports
Route: +IZZZO6 HRRBR PHRED THRNE1
File this flight plan on PilotEdge
Remarks: PBN / A1B3B4B5D3D4 DOF / 171230 REG / N372SB EET / KZLA0016 OPR / SWA PER / C RMK / TCAS SIMBRIEF
Altitude:
(Current/Filed)
36,000ft
Speed:
(Current/Filed)
428kts
Departed: 30-Dec-17 02:21 PM
Arrived: 30-Dec-17 03:30 PM
Distance/Time
Traveled:
326nm/1:09
Distance/Time
To Go:
Arrived

Flight Plot

Page will automatically refresh every two minutes.

Flight plan parsing failed; only flown route is shown


Map Options




Map Legend


Flown Route
Filed Route
Departure Airport
Arrival Airport
Navaid (VOR, NDB)
Fix

Horizontal Profiles

Position Reports

Time Latitude Longitude Heading Altitude Ground
Speed
30-Dec-17 14:01 33.437270 -112.002366 92 1129ft 0kts
30-Dec-17 14:02 33.437270 -112.002366 92 1129ft 0kts
30-Dec-17 14:03 33.437270 -112.002366 92 1129ft 0kts
30-Dec-17 14:04 33.437270 -112.002366 92 1129ft 0kts
30-Dec-17 14:05 33.437270 -112.002366 92 1129ft 0kts
30-Dec-17 14:06 33.437270 -112.002366 92 1129ft 0kts
30-Dec-17 14:07 33.437270 -112.002366 92 1129ft 0kts
30-Dec-17 14:08 33.437270 -112.002366 92 1129ft 0kts
30-Dec-17 14:09 33.437270 -112.002366 92 1129ft 0kts
30-Dec-17 14:10 33.437270 -112.002366 92 1129ft 0kts
30-Dec-17 14:11 33.437270 -112.002366 92 1129ft 0kts
30-Dec-17 14:12 33.437270 -112.002366 92 1129ft 0kts
30-Dec-17 14:13 33.437270 -112.002366 92 1129ft 0kts
30-Dec-17 14:14 33.437270 -112.002366 92 1129ft 0kts
30-Dec-17 14:15 33.437270 -112.002366 92 1129ft 0kts
30-Dec-17 14:16 33.437270 -112.002366 92 1129ft 0kts
30-Dec-17 14:17 33.437270 -112.002366 92 1129ft 0kts
30-Dec-17 14:18 33.437271 -112.002396 93 1129ft 4kts
30-Dec-17 14:19 33.437289 -112.002931 92 1129ft 0kts
30-Dec-17 14:20 33.437289 -112.002931 91 1129ft 0kts
30-Dec-17 14:21 33.437289 -112.002931 91 1129ft 0kts
30-Dec-17 14:22 33.438197 -112.003050 358 1129ft 8kts
30-Dec-17 14:23 33.439722 -112.003269 77 1129ft 18kts
30-Dec-17 14:24 33.439758 -111.995803 89 1135ft 24kts
30-Dec-17 14:25 33.439869 -111.992470 29 1135ft 0kts
30-Dec-17 14:26 33.440819 -111.992767 270 1136ft 0kts
30-Dec-17 14:27 33.440924 -112.013887 270 1191ft 188kts
30-Dec-17 14:28 33.440994 -112.081448 269 3534ft 224kts
30-Dec-17 14:29 33.442536 -112.160724 271 5676ft 268kts
30-Dec-17 14:30 33.444204 -112.252878 271 8563ft 285kts
30-Dec-17 14:31 33.446212 -112.351300 272 10600ft 327kts
30-Dec-17 14:32 33.448156 -112.462718 270 13264ft 342kts
30-Dec-17 14:33 33.450093 -112.577177 269 15592ft 357kts
30-Dec-17 14:34 33.451988 -112.695921 268 17851ft 367kts
30-Dec-17 14:35 33.456549 -112.819257 279 19977ft 380kts
30-Dec-17 14:36 33.480391 -112.944504 279 21908ft 391kts
30-Dec-17 14:37 33.504433 -113.073031 279 23606ft 402kts
30-Dec-17 14:38 33.528835 -113.204392 280 25245ft 410kts
30-Dec-17 14:39 33.553715 -113.339185 280 26788ft 418kts
30-Dec-17 14:40 33.578832 -113.476143 280 28310ft 423kts
30-Dec-17 14:41 33.603623 -113.612026 281 30092ft 416kts
30-Dec-17 14:42 33.628412 -113.745482 281 31424ft 416kts
30-Dec-17 14:43 33.650885 -113.877650 270 33163ft 398kts
30-Dec-17 14:44 33.648165 -114.010369 268 34090ft 398kts
30-Dec-17 14:45 33.647710 -114.141951 276 35064ft 392kts
30-Dec-17 14:46 33.660825 -114.271411 276 35798ft 390kts
30-Dec-17 14:47 33.673562 -114.400662 276 36006ft 393kts
30-Dec-17 14:48 33.686731 -114.530435 277 36002ft 392kts
30-Dec-17 14:49 33.698616 -114.655475 275 35988ft 383kts
30-Dec-17 14:50 33.710125 -114.776693 275 36084ft 385kts
30-Dec-17 14:51 33.722088 -114.902367 275 36076ft 384kts
30-Dec-17 14:52 33.734064 -115.029551 275 36066ft 385kts
30-Dec-17 14:53 33.745671 -115.154241 275 36030ft 382kts
30-Dec-17 14:54 33.757759 -115.280982 276 34478ft 386kts
30-Dec-17 14:55 33.770700 -115.408733 275 31999ft 394kts
30-Dec-17 14:56 33.784368 -115.541372 276 29716ft 412kts
30-Dec-17 14:57 33.797685 -115.674651 274 27654ft 415kts
30-Dec-17 14:58 33.810628 -115.807690 273 26316ft 383kts
30-Dec-17 14:59 33.824076 -115.941637 274 24586ft 406kts
30-Dec-17 15:00 33.837790 -116.072681 274 22713ft 395kts
30-Dec-17 15:01 33.848898 -116.202835 273 20808ft 385kts
30-Dec-17 15:02 33.858567 -116.328848 273 19083ft 377kts
30-Dec-17 15:03 33.869788 -116.452762 275 17333ft 371kts
30-Dec-17 15:04 33.884021 -116.572369 279 15793ft 359kts
30-Dec-17 15:05 33.902405 -116.687880 279 14683ft 353kts
30-Dec-17 15:06 33.920637 -116.802891 279 13966ft 349kts
30-Dec-17 15:07 33.938767 -116.917659 279 13273ft 347kts
30-Dec-17 15:08 33.961007 -117.027023 284 13054ft 318kts
30-Dec-17 15:09 33.983993 -117.123198 285 12254ft 290kts
30-Dec-17 15:10 34.005673 -117.213552 285 11405ft 282kts
30-Dec-17 15:11 34.026595 -117.300473 285 10602ft 275kts
30-Dec-17 15:12 34.047693 -117.388886 285 10106ft 275kts
30-Dec-17 15:13 34.068447 -117.476495 285 9996ft 273kts
30-Dec-17 15:14 34.084045 -117.565956 280 9797ft 272kts
30-Dec-17 15:15 34.097649 -117.653983 279 9402ft 271kts
30-Dec-17 15:16 34.111282 -117.741048 279 8990ft 274kts
30-Dec-17 15:17 34.125176 -117.831006 279 8643ft 274kts
30-Dec-17 15:18 34.138992 -117.921248 279 8297ft 273kts
30-Dec-17 15:19 34.152859 -118.010678 282 7951ft 270kts
30-Dec-17 15:20 34.172076 -118.098643 284 7978ft 272kts
30-Dec-17 15:21 34.185881 -118.160663 284 7976ft 272kts
30-Dec-17 15:22 34.204533 -118.244290 284 7976ft 271kts
30-Dec-17 15:23 34.259869 -118.302032 332 7984ft 277kts
30-Dec-17 15:24 34.324423 -118.342292 332 7329ft 262kts
30-Dec-17 15:25 34.383798 -118.379068 332 6978ft 209kts
30-Dec-17 15:26 34.434705 -118.410626 332 7018ft 204kts
30-Dec-17 15:27 34.485014 -118.442015 333 6460ft 203kts
30-Dec-17 15:28 34.526867 -118.481658 274 5994ft 200kts
30-Dec-17 15:29 34.500772 -118.532654 189 6014ft 203kts
30-Dec-17 15:30 34.448269 -118.515568 163 5183ft 199kts
30-Dec-17 15:31 34.403531 -118.507406 177 5012ft 198kts
30-Dec-17 15:32 34.341131 -118.502907 176 3966ft 179kts
30-Dec-17 15:33 34.300882 -118.498914 174 3018ft 171kts
30-Dec-17 15:34 34.254206 -118.494467 175 1872ft 147kts
30-Dec-17 15:35 34.209149 -118.490333 175 780ft 127kts
30-Dec-17 15:36 34.196798 -118.488953 77 752ft 1kts
30-Dec-17 15:37 34.197464 -118.488383 356 753ft 0kts
30-Dec-17 15:38 34.199071 -118.489326 317 756ft 8kts

Navigation Log

Ident Type
Flight plan parsing failed, navigation log unavailable